sensor_id;sensor_type;location;lat;lon;timestamp;P1;durP1;ratioP1;P2;durP2;ratioP2
47129;SDS011;69689;48.122;11.542;2023-06-26T05:01:50;7.40;;;4.35;;
47129;SDS011;69689;48.122;11.542;2023-06-26T05:04:15;6.45;;;4.10;;
47129;SDS011;69689;48.122;11.542;2023-06-26T05:06:41;6.18;;;4.07;;
47129;SDS011;69689;48.122;11.542;2023-06-26T05:09:06;8.02;;;4.50;;
47129;SDS011;69689;48.122;11.542;2023-06-26T05:11:32;7.20;;;4.38;;
47129;SDS011;69689;48.122;11.542;2023-06-26T05:13:57;6.17;;;4.47;;
47129;SDS011;69689;48.122;11.542;2023-06-26T05:16:22;5.68;;;4.20;;
47129;SDS011;69689;48.122;11.542;2023-06-26T05:18:48;6.37;;;4.40;;
47129;SDS011;69689;48.122;11.542;2023-06-26T05:21:13;7.37;;;4.20;;
47129;SDS011;69689;48.122;11.542;2023-06-26T05:23:39;5.72;;;4.38;;
47129;SDS011;69689;48.122;11.542;2023-06-26T05:26:04;6.68;;;4.60;;
47129;SDS011;69689;48.122;11.542;2023-06-26T05:28:30;3.97;;;2.45;;
47129;SDS011;69689;48.122;11.542;2023-06-26T05:30:58;8.15;;;4.85;;
47129;SDS011;69689;48.122;11.542;2023-06-26T05:33:24;4.68;;;3.33;;
47129;SDS011;69689;48.122;11.542;2023-06-26T05:35:54;6.18;;;3.22;;
47129;SDS011;69689;48.122;11.542;2023-06-26T05:38:20;6.13;;;3.95;;
47129;SDS011;69689;48.122;11.542;2023-06-26T05:40:45;6.35;;;4.65;;
47129;SDS011;69689;48.122;11.542;2023-06-26T05:43:11;7.18;;;4.30;;
47129;SDS011;69689;48.122;11.542;2023-06-26T05:45:37;5.53;;;3.85;;
47129;SDS011;69689;48.122;11.542;2023-06-26T05:48:02;6.53;;;4.75;;
47129;SDS011;69689;48.122;11.542;2023-06-26T05:50:28;3.13;;;2.20;;
47129;SDS011;69689;48.122;11.542;2023-06-26T05:52:53;6.07;;;4.15;;
47129;SDS011;69689;48.122;11.542;2023-06-26T05:55:19;6.28;;;4.45;;
47129;SDS011;69689;48.122;11.542;2023-06-26T05:57:45;5.35;;;4.03;;
47129;SDS011;69689;48.122;11.542;2023-06-26T06:00:11;6.40;;;3.80;;
47129;SDS011;69689;48.122;11.542;2023-06-26T06:02:37;3.78;;;2.78;;
47129;SDS011;69689;48.122;11.542;2023-06-26T06:05:03;2.92;;;1.40;;
47129;SDS011;69689;48.122;11.542;2023-06-26T06:07:28;5.75;;;4.03;;
47129;SDS011;69689;48.122;11.542;2023-06-26T06:09:53;4.50;;;3.40;;
47129;SDS011;69689;48.122;11.542;2023-06-26T06:12:19;5.83;;;3.97;;
47129;SDS011;69689;48.122;11.542;2023-06-26T06:14:44;4.72;;;3.55;;
47129;SDS011;69689;48.122;11.542;2023-06-26T06:17:09;4.88;;;3.55;;
47129;SDS011;69689;48.122;11.542;2023-06-26T06:19:35;5.00;;;3.50;;
47129;SDS011;69689;48.122;11.542;2023-06-26T06:22:00;5.97;;;3.90;;
47129;SDS011;69689;48.122;11.542;2023-06-26T06:24:25;5.00;;;3.92;;
47129;SDS011;69689;48.122;11.542;2023-06-26T06:26:51;5.68;;;4.32;;
47129;SDS011;69689;48.122;11.542;2023-06-26T06:29:16;5.65;;;4.00;;
47129;SDS011;69689;48.122;11.542;2023-06-26T06:31:43;5.78;;;3.72;;
47129;SDS011;69689;48.122;11.542;2023-06-26T06:34:09;5.70;;;4.13;;
47129;SDS011;69689;48.122;11.542;2023-06-26T06:36:34;4.40;;;3.60;;
47129;SDS011;69689;48.122;11.542;2023-06-26T06:39:00;5.45;;;3.88;;
47129;SDS011;69689;48.122;11.542;2023-06-26T06:41:25;5.10;;;4.30;;
47129;SDS011;69689;48.122;11.542;2023-06-26T06:43:50;5.75;;;3.85;;
47129;SDS011;69689;48.122;11.542;2023-06-26T06:46:16;4.60;;;3.60;;
47129;SDS011;69689;48.122;11.542;2023-06-26T06:48:41;5.32;;;3.47;;
47129;SDS011;69689;48.122;11.542;2023-06-26T06:51:06;4.23;;;3.10;;
47129;SDS011;69689;48.122;11.542;2023-06-26T06:53:32;4.87;;;3.80;;
47129;SDS011;69689;48.122;11.542;2023-06-26T06:55:57;2.17;;;1.98;;
47129;SDS011;69689;48.122;11.542;2023-06-26T06:58:22;4.40;;;3.10;;
47129;SDS011;69689;48.122;11.542;2023-06-26T07:00:48;3.92;;;3.05;;
47129;SDS011;69689;48.122;11.542;2023-06-26T07:03:13;5.57;;;4.43;;
47129;SDS011;69689;48.122;11.542;2023-06-26T07:05:40;5.00;;;4.22;;
47129;SDS011;69689;48.122;11.542;2023-06-26T07:08:06;3.78;;;2.60;;
47129;SDS011;69689;48.122;11.542;2023-06-26T07:10:32;5.93;;;4.03;;
47129;SDS011;69689;48.122;11.542;2023-06-26T07:12:57;7.65;;;4.43;;
47129;SDS011;69689;48.122;11.542;2023-06-26T07:15:22;5.30;;;3.67;;
47129;SDS011;69689;48.122;11.542;2023-06-26T07:17:48;4.70;;;3.90;;
47129;SDS011;69689;48.122;11.542;2023-06-26T07:20:13;4.80;;;4.30;;
47129;SDS011;69689;48.122;11.542;2023-06-26T07:22:41;4.35;;;3.42;;
47129;SDS011;69689;48.122;11.542;2023-06-26T07:25:07;4.85;;;3.33;;
47129;SDS011;69689;48.122;11.542;2023-06-26T07:27:39;5.82;;;4.47;;
47129;SDS011;69689;48.122;11.542;2023-06-26T07:30:05;4.63;;;3.67;;
47129;SDS011;69689;48.122;11.542;2023-06-26T07:32:30;4.65;;;3.85;;
47129;SDS011;69689;48.122;11.542;2023-06-26T07:34:56;4.55;;;3.55;;
47129;SDS011;69689;48.122;11.542;2023-06-26T07:37:21;6.82;;;4.30;;
47129;SDS011;69689;48.122;11.542;2023-06-26T07:39:47;4.97;;;4.43;;
47129;SDS011;69689;48.122;11.542;2023-06-26T07:42:13;3.72;;;3.20;;
47129;SDS011;69689;48.122;11.542;2023-06-26T07:44:39;5.32;;;4.07;;
47129;SDS011;69689;48.122;11.542;2023-06-26T07:47:04;4.40;;;3.53;;
47129;SDS011;69689;48.122;11.542;2023-06-26T07:49:29;5.55;;;4.18;;
47129;SDS011;69689;48.122;11.542;2023-06-26T07:51:55;4.00;;;3.60;;
47129;SDS011;69689;48.122;11.542;2023-06-26T07:54:20;4.07;;;3.45;;
47129;SDS011;69689;48.122;11.542;2023-06-26T07:57:18;2.93;;;2.63;;
47129;SDS011;69689;48.122;11.542;2023-06-26T07:59:40;5.60;;;4.28;;
47129;SDS011;69689;48.122;11.542;2023-06-26T08:02:05;4.72;;;3.78;;
47129;SDS011;69689;48.122;11.542;2023-06-26T08:04:31;4.55;;;4.15;;
47129;SDS011;69689;48.122;11.542;2023-06-26T08:06:57;5.60;;;4.40;;
47129;SDS011;69689;48.122;11.542;2023-06-26T08:09:24;5.40;;;4.13;;
47129;SDS011;69689;48.122;11.542;2023-06-26T08:11:50;4.05;;;3.22;;
47129;SDS011;69689;48.122;11.542;2023-06-26T08:14:16;6.82;;;4.15;;
47129;SDS011;69689;48.122;11.542;2023-06-26T08:16:41;5.45;;;4.53;;
47129;SDS011;69689;48.122;11.542;2023-06-26T08:19:08;6.35;;;4.53;;
47129;SDS011;69689;48.122;11.542;2023-06-26T08:21:33;4.72;;;3.80;;
47129;SDS011;69689;48.122;11.542;2023-06-26T08:23:58;6.85;;;4.43;;
47129;SDS011;69689;48.122;11.542;2023-06-26T08:26:24;4.93;;;4.17;;
47129;SDS011;69689;48.122;11.542;2023-06-26T08:28:49;6.37;;;4.63;;
47129;SDS011;69689;48.122;11.542;2023-06-26T08:31:15;5.93;;;4.50;;
47129;SDS011;69689;48.122;11.542;2023-06-26T08:33:41;4.63;;;3.17;;
47129;SDS011;69689;48.122;11.542;2023-06-26T08:36:06;5.27;;;4.40;;
47129;SDS011;69689;48.122;11.542;2023-06-26T08:38:32;5.13;;;4.60;;
47129;SDS011;69689;48.122;11.542;2023-06-26T08:40:58;5.18;;;4.65;;
47129;SDS011;69689;48.122;11.542;2023-06-26T08:43:23;4.53;;;4.05;;
47129;SDS011;69689;48.122;11.542;2023-06-26T08:45:49;5.05;;;4.22;;
47129;SDS011;69689;48.122;11.542;2023-06-26T08:48:16;8.38;;;4.85;;
47129;SDS011;69689;48.122;11.542;2023-06-26T08:50:42;4.53;;;4.00;;
47129;SDS011;69689;48.122;11.542;2023-06-26T08:55:49;4.65;;;4.07;;
47129;SDS011;69689;48.122;11.542;2023-06-26T08:58:17;4.60;;;4.20;;
47129;SDS011;69689;48.122;11.542;2023-06-26T09:00:43;4.93;;;4.20;;
47129;SDS011;69689;48.122;11.542;2023-06-26T09:03:08;3.60;;;2.80;;
47129;SDS011;69689;48.122;11.542;2023-06-26T09:05:34;4.22;;;3.83;;
47129;SDS011;69689;48.122;11.542;2023-06-26T09:08:00;4.55;;;3.75;;
47129;SDS011;69689;48.122;11.542;2023-06-26T09:10:25;4.50;;;3.90;;
47129;SDS011;69689;48.122;11.542;2023-06-26T09:12:54;5.85;;;4.97;;
47129;SDS011;69689;48.122;11.542;2023-06-26T09:15:20;5.28;;;4.25;;
47129;SDS011;69689;48.122;11.542;2023-06-26T09:17:47;5.57;;;4.13;;
47129;SDS011;69689;48.122;11.542;2023-06-26T09:20:13;4.18;;;3.22;;
47129;SDS011;69689;48.122;11.542;2023-06-26T09:22:41;6.13;;;4.63;;
47129;SDS011;69689;48.122;11.542;2023-06-26T09:25:07;5.43;;;4.55;;
47129;SDS011;69689;48.122;11.542;2023-06-26T09:27:34;5.20;;;4.57;;
47129;SDS011;69689;48.122;11.542;2023-06-26T09:30:01;5.97;;;4.75;;
47129;SDS011;69689;48.122;11.542;2023-06-26T09:32:28;5.68;;;4.50;;
47129;SDS011;69689;48.122;11.542;2023-06-26T09:34:54;3.50;;;3.20;;
47129;SDS011;69689;48.122;11.542;2023-06-26T09:37:21;7.07;;;5.00;;
47129;SDS011;69689;48.122;11.542;2023-06-26T09:39:50;9.27;;;4.38;;
47129;SDS011;69689;48.122;11.542;2023-06-26T09:42:16;5.05;;;4.25;;
47129;SDS011;69689;48.122;11.542;2023-06-26T09:44:44;4.70;;;4.30;;
47129;SDS011;69689;48.122;11.542;2023-06-26T09:47:10;5.25;;;4.38;;
47129;SDS011;69689;48.122;11.542;2023-06-26T09:49:36;4.32;;;3.72;;
47129;SDS011;69689;48.122;11.542;2023-06-26T09:52:01;3.42;;;2.90;;
47129;SDS011;69689;48.122;11.542;2023-06-26T09:54:27;4.45;;;4.05;;
47129;SDS011;69689;48.122;11.542;2023-06-26T09:56:55;3.80;;;3.50;;
47129;SDS011;69689;48.122;11.542;2023-06-26T09:59:21;5.20;;;4.80;;
47129;SDS011;69689;48.122;11.542;2023-06-26T10:01:48;9.50;;;9.00;;
47129;SDS011;69689;48.122;11.542;2023-06-26T10:04:13;13.70;;;13.00;;
47129;SDS011;69689;48.122;11.542;2023-06-26T10:06:41;31.02;;;29.73;;
47129;SDS011;69689;48.122;11.542;2023-06-26T10:09:10;49.92;;;48.20;;
47129;SDS011;69689;48.122;11.542;2023-06-26T10:11:47;98.20;;;95.32;;
47129;SDS011;69689;48.122;11.542;2023-06-26T10:14:14;65.30;;;63.00;;
47129;SDS011;69689;48.122;11.542;2023-06-26T10:16:40;22.13;;;21.33;;
47129;SDS011;69689;48.122;11.542;2023-06-26T10:19:07;19.65;;;18.75;;
47129;SDS011;69689;48.122;11.542;2023-06-26T10:21:34;17.67;;;16.88;;
47129;SDS011;69689;48.122;11.542;2023-06-26T10:23:59;29.23;;;28.02;;
47129;SDS011;69689;48.122;11.542;2023-06-26T10:26:25;60.85;;;58.92;;
47129;SDS011;69689;48.122;11.542;2023-06-26T10:28:52;130.48;;;126.82;;
47129;SDS011;69689;48.122;11.542;2023-06-26T10:31:22;177.00;;;172.23;;
47129;SDS011;69689;48.122;11.542;2023-06-26T10:33:49;224.50;;;218.77;;
47129;SDS011;69689;48.122;11.542;2023-06-26T10:36:15;275.35;;;268.73;;
47129;SDS011;69689;48.122;11.542;2023-06-26T10:38:50;250.50;;;244.48;;
47129;SDS011;69689;48.122;11.542;2023-06-26T10:41:23;267.75;;;261.38;;
47129;SDS011;69689;48.122;11.542;2023-06-26T10:46:26;179.75;;;175.18;;
47129;SDS011;69689;48.122;11.542;2023-06-26T10:48:58;197.57;;;192.67;;
47129;SDS011;69689;48.122;11.542;2023-06-26T10:51:25;300.38;;;293.42;;
47129;SDS011;69689;48.122;11.542;2023-06-26T10:53:54;184.90;;;180.27;;
47129;SDS011;69689;48.122;11.542;2023-06-26T10:56:20;103.53;;;100.68;;
47129;SDS011;69689;48.122;11.542;2023-06-26T10:58:45;150.15;;;146.25;;
47129;SDS011;69689;48.122;11.542;2023-06-26T11:06:16;404.80;;;395.83;;
47129;SDS011;69689;48.122;11.542;2023-06-26T11:11:12;443.88;;;434.17;;
47129;SDS011;69689;48.122;11.542;2023-06-26T11:13:39;449.90;;;439.95;;
47129;SDS011;69689;48.122;11.542;2023-06-26T11:16:05;465.67;;;455.58;;
47129;SDS011;69689;48.122;11.542;2023-06-26T11:18:31;465.30;;;455.35;;
47129;SDS011;69689;48.122;11.542;2023-06-26T11:21:04;192.15;;;187.35;;
47129;SDS011;69689;48.122;11.542;2023-06-26T11:23:47;56.53;;;54.90;;
47129;SDS011;69689;48.122;11.542;2023-06-26T11:26:14;30.25;;;29.35;;
47129;SDS011;69689;48.122;11.542;2023-06-26T11:28:45;31.85;;;30.45;;
47129;SDS011;69689;48.122;11.542;2023-06-26T11:31:27;26.90;;;25.80;;
47129;SDS011;69689;48.122;11.542;2023-06-26T11:33:56;22.00;;;21.08;;
47129;SDS011;69689;48.122;11.542;2023-06-26T11:36:23;36.88;;;35.47;;
47129;SDS011;69689;48.122;11.542;2023-06-26T11:38:54;15.32;;;14.70;;
47129;SDS011;69689;48.122;11.542;2023-06-26T11:41:23;8.57;;;8.18;;
47129;SDS011;69689;48.122;11.542;2023-06-26T11:43:52;37.13;;;35.80;;
47129;SDS011;69689;48.122;11.542;2023-06-26T11:46:21;96.18;;;93.15;;
47129;SDS011;69689;48.122;11.542;2023-06-26T11:48:47;74.50;;;71.90;;
47129;SDS011;69689;48.122;11.542;2023-06-26T11:51:13;127.60;;;123.82;;
47129;SDS011;69689;48.122;11.542;2023-06-26T11:53:43;225.60;;;220.15;;
47129;SDS011;69689;48.122;11.542;2023-06-26T11:56:12;289.48;;;282.70;;
47129;SDS011;69689;48.122;11.542;2023-06-26T12:01:33;476.55;;;466.33;;
47129;SDS011;69689;48.122;11.542;2023-06-26T12:04:07;547.65;;;536.08;;
47129;SDS011;69689;48.122;11.542;2023-06-26T12:06:34;608.17;;;595.55;;
47129;SDS011;69689;48.122;11.542;2023-06-26T12:09:01;579.40;;;567.10;;
47129;SDS011;69689;48.122;11.542;2023-06-26T12:11:28;573.75;;;561.47;;
47129;SDS011;69689;48.122;11.542;2023-06-26T12:13:54;629.42;;;616.20;;
47129;SDS011;69689;48.122;11.542;2023-06-26T12:16:20;492.48;;;481.92;;
47129;SDS011;69689;48.122;11.542;2023-06-26T12:18:45;157.80;;;153.70;;
47129;SDS011;69689;48.122;11.542;2023-06-26T12:24:21;233.15;;;227.52;;
47129;SDS011;69689;48.122;11.542;2023-06-26T12:26:49;315.45;;;308.08;;
47129;SDS011;69689;48.122;11.542;2023-06-26T12:29:17;394.38;;;385.65;;
47129;SDS011;69689;48.122;11.542;2023-06-26T12:31:44;368.77;;;360.52;;
47129;SDS011;69689;48.122;11.542;2023-06-26T12:34:11;407.50;;;398.45;;
47129;SDS011;69689;48.122;11.542;2023-06-26T12:36:46;458.70;;;448.80;;
47129;SDS011;69689;48.122;11.542;2023-06-26T12:39:14;498.23;;;487.48;;
47129;SDS011;69689;48.122;11.542;2023-06-26T12:44:17;650.42;;;637.38;;
47129;SDS011;69689;48.122;11.542;2023-06-26T12:46:45;582.90;;;570.58;;
47129;SDS011;69689;48.122;11.542;2023-06-26T12:49:12;573.08;;;560.80;;
47129;SDS011;69689;48.122;11.542;2023-06-26T12:51:37;652.35;;;638.70;;
47129;SDS011;69689;48.122;11.542;2023-06-26T12:54:05;670.35;;;656.17;;
47129;SDS011;69689;48.122;11.542;2023-06-26T12:56:30;609.42;;;596.63;;
47129;SDS011;69689;48.122;11.542;2023-06-26T12:58:55;502.42;;;491.88;;
47129;SDS011;69689;48.122;11.542;2023-06-26T13:01:21;514.80;;;503.87;;
47129;SDS011;69689;48.122;11.542;2023-06-26T13:03:49;548.30;;;536.70;;
47129;SDS011;69689;48.122;11.542;2023-06-26T13:06:16;573.90;;;561.78;;
47129;SDS011;69689;48.122;11.542;2023-06-26T13:08:41;584.58;;;572.17;;
47129;SDS011;69689;48.122;11.542;2023-06-26T13:11:07;592.13;;;579.58;;
47129;SDS011;69689;48.122;11.542;2023-06-26T13:13:32;417.90;;;408.67;;
47129;SDS011;69689;48.122;11.542;2023-06-26T13:15:57;156.80;;;152.77;;
47129;SDS011;69689;48.122;11.542;2023-06-26T13:18:22;56.50;;;54.83;;
47129;SDS011;69689;48.122;11.542;2023-06-26T13:20:48;41.83;;;40.63;;
47129;SDS011;69689;48.122;11.542;2023-06-26T13:23:13;89.55;;;87.07;;
47129;SDS011;69689;48.122;11.542;2023-06-26T13:25:39;148.57;;;144.73;;
47129;SDS011;69689;48.122;11.542;2023-06-26T13:28:04;173.40;;;169.02;;
47129;SDS011;69689;48.122;11.542;2023-06-26T13:30:29;168.63;;;164.35;;
47129;SDS011;69689;48.122;11.542;2023-06-26T13:32:54;216.85;;;211.57;;
47129;SDS011;69689;48.122;11.542;2023-06-26T13:35:20;310.80;;;303.70;;
47129;SDS011;69689;48.122;11.542;2023-06-26T13:37:45;366.98;;;358.80;;
47129;SDS011;69689;48.122;11.542;2023-06-26T13:40:12;365.08;;;357.00;;
47129;SDS011;69689;48.122;11.542;2023-06-26T13:42:37;134.82;;;131.25;;
47129;SDS011;69689;48.122;11.542;2023-06-26T13:45:03;67.07;;;65.15;;
47129;SDS011;69689;48.122;11.542;2023-06-26T13:47:29;98.85;;;96.15;;
47129;SDS011;69689;48.122;11.542;2023-06-26T13:49:54;36.60;;;35.47;;
47129;SDS011;69689;48.122;11.542;2023-06-26T13:52:19;24.92;;;23.73;;
47129;SDS011;69689;48.122;11.542;2023-06-26T13:54:45;18.25;;;17.30;;
47129;SDS011;69689;48.122;11.542;2023-06-26T13:57:10;10.07;;;9.37;;
47129;SDS011;69689;48.122;11.542;2023-06-26T13:59:37;12.30;;;11.57;;
47129;SDS011;69689;48.122;11.542;2023-06-26T14:02:03;17.65;;;16.58;;
47129;SDS011;69689;48.122;11.542;2023-06-26T14:04:30;48.22;;;46.50;;
47129;SDS011;69689;48.122;11.542;2023-06-26T14:06:55;70.10;;;67.75;;
47129;SDS011;69689;48.122;11.542;2023-06-26T14:09:20;166.32;;;161.88;;
47129;SDS011;69689;48.122;11.542;2023-06-26T14:11:46;195.63;;;190.80;;
47129;SDS011;69689;48.122;11.542;2023-06-26T14:14:12;243.50;;;237.63;;
47129;SDS011;69689;48.122;11.542;2023-06-26T14:16:37;241.07;;;235.23;;
47129;SDS011;69689;48.122;11.542;2023-06-26T14:19:02;308.87;;;301.70;;
47129;SDS011;69689;48.122;11.542;2023-06-26T14:21:28;346.60;;;338.73;;
47129;SDS011;69689;48.122;11.542;2023-06-26T14:23:54;455.05;;;445.33;;
47129;SDS011;69689;48.122;11.542;2023-06-26T14:26:20;454.52;;;444.80;;
47129;SDS011;69689;48.122;11.542;2023-06-26T14:28:45;420.45;;;411.17;;
47129;SDS011;69689;48.122;11.542;2023-06-26T14:31:11;454.67;;;444.98;;
47129;SDS011;69689;48.122;11.542;2023-06-26T14:33:37;394.25;;;385.50;;
47129;SDS011;69689;48.122;11.542;2023-06-26T14:36:02;333.30;;;325.65;;
47129;SDS011;69689;48.122;11.542;2023-06-26T14:38:28;385.57;;;377.00;;
47129;SDS011;69689;48.122;11.542;2023-06-26T14:40:53;442.40;;;432.92;;
47129;SDS011;69689;48.122;11.542;2023-06-26T14:43:18;385.77;;;377.20;;
47129;SDS011;69689;48.122;11.542;2023-06-26T14:45:43;381.52;;;372.92;;
47129;SDS011;69689;48.122;11.542;2023-06-26T14:48:09;412.48;;;403.33;;
47129;SDS011;69689;48.122;11.542;2023-06-26T14:50:34;439.00;;;429.50;;
47129;SDS011;69689;48.122;11.542;2023-06-26T14:52:59;416.08;;;406.98;;
47129;SDS011;69689;48.122;11.542;2023-06-26T14:55:25;371.80;;;363.57;;
47129;SDS011;69689;48.122;11.542;2023-06-26T14:57:50;286.73;;;280.02;;
47129;SDS011;69689;48.122;11.542;2023-06-26T15:00:17;222.85;;;217.43;;
47129;SDS011;69689;48.122;11.542;2023-06-26T15:02:43;197.57;;;192.68;;
47129;SDS011;69689;48.122;11.542;2023-06-26T15:05:08;102.22;;;99.40;;
47129;SDS011;69689;48.122;11.542;2023-06-26T15:07:34;44.53;;;43.17;;
47129;SDS011;69689;48.122;11.542;2023-06-26T15:09:59;29.67;;;28.53;;
47129;SDS011;69689;48.122;11.542;2023-06-26T15:12:25;47.05;;;45.35;;
47129;SDS011;69689;48.122;11.542;2023-06-26T15:14:50;32.40;;;31.05;;
47129;SDS011;69689;48.122;11.542;2023-06-26T15:17:16;28.98;;;27.65;;
47129;SDS011;69689;48.122;11.542;2023-06-26T15:19:42;13.82;;;13.05;;
47129;SDS011;69689;48.122;11.542;2023-06-26T15:22:07;8.52;;;7.97;;
47129;SDS011;69689;48.122;11.542;2023-06-26T15:24:33;6.97;;;6.57;;
47129;SDS011;69689;48.122;11.542;2023-06-26T15:26:58;7.28;;;6.78;;
47129;SDS011;69689;48.122;11.542;2023-06-26T15:29:23;7.10;;;6.43;;
47129;SDS011;69689;48.122;11.542;2023-06-26T15:31:49;5.85;;;5.25;;
47129;SDS011;69689;48.122;11.542;2023-06-26T15:34:14;6.70;;;6.07;;
47129;SDS011;69689;48.122;11.542;2023-06-26T15:36:39;6.75;;;5.05;;
47129;SDS011;69689;48.122;11.542;2023-06-26T15:39:05;5.47;;;4.80;;
47129;SDS011;69689;48.122;11.542;2023-06-26T15:41:30;8.32;;;5.20;;
47129;SDS011;69689;48.122;11.542;2023-06-26T15:43:56;4.73;;;4.33;;
47129;SDS011;69689;48.122;11.542;2023-06-26T15:46:22;3.83;;;3.47;;
47129;SDS011;69689;48.122;11.542;2023-06-26T15:48:47;4.77;;;4.37;;
47129;SDS011;69689;48.122;11.542;2023-06-26T15:51:13;4.90;;;4.43;;
47129;SDS011;69689;48.122;11.542;2023-06-26T15:53:40;4.35;;;3.58;;
47129;SDS011;69689;48.122;11.542;2023-06-26T15:56:06;7.28;;;4.88;;
47129;SDS011;69689;48.122;11.542;2023-06-26T15:58:33;3.75;;;3.33;;
47129;SDS011;69689;48.122;11.542;2023-06-26T16:00:59;5.97;;;4.32;;
47129;SDS011;69689;48.122;11.542;2023-06-26T16:03:25;5.55;;;3.05;;
47129;SDS011;69689;48.122;11.542;2023-06-26T16:05:53;5.88;;;5.28;;
47129;SDS011;69689;48.122;11.542;2023-06-26T16:08:18;5.07;;;3.90;;
47129;SDS011;69689;48.122;11.542;2023-06-26T16:10:43;4.67;;;4.20;;
47129;SDS011;69689;48.122;11.542;2023-06-26T16:13:09;5.70;;;4.93;;
47129;SDS011;69689;48.122;11.542;2023-06-26T16:15:34;4.07;;;3.67;;
47129;SDS011;69689;48.122;11.542;2023-06-26T16:18:01;3.40;;;3.08;;
47129;SDS011;69689;48.122;11.542;2023-06-26T16:20:27;3.58;;;2.95;;
47129;SDS011;69689;48.122;11.542;2023-06-26T16:22:52;7.23;;;5.30;;
47129;SDS011;69689;48.122;11.542;2023-06-26T16:25:19;7.65;;;5.85;;
47129;SDS011;69689;48.122;11.542;2023-06-26T16:27:47;4.45;;;3.95;;
47129;SDS011;69689;48.122;11.542;2023-06-26T16:30:13;5.80;;;5.07;;
47129;SDS011;69689;48.122;11.542;2023-06-26T16:32:39;5.75;;;5.15;;
47129;SDS011;69689;48.122;11.542;2023-06-26T16:35:05;4.67;;;3.80;;
47129;SDS011;69689;48.122;11.542;2023-06-26T16:37:30;5.25;;;4.22;;
47129;SDS011;69689;48.122;11.542;2023-06-26T16:39:56;2.87;;;2.50;;
47129;SDS011;69689;48.122;11.542;2023-06-26T16:42:21;6.00;;;5.40;;
47129;SDS011;69689;48.122;11.542;2023-06-26T16:44:47;5.22;;;4.72;;
47129;SDS011;69689;48.122;11.542;2023-06-26T16:47:13;5.18;;;4.55;;
47129;SDS011;69689;48.122;11.542;2023-06-26T16:49:42;3.95;;;3.60;;
47129;SDS011;69689;48.122;11.542;2023-06-26T16:52:11;5.85;;;3.70;;
47129;SDS011;69689;48.122;11.542;2023-06-26T16:54:37;5.10;;;4.70;;
47129;SDS011;69689;48.122;11.542;2023-06-26T16:57:02;4.63;;;3.67;;
47129;SDS011;69689;48.122;11.542;2023-06-26T16:59:28;4.50;;;4.07;;
47129;SDS011;69689;48.122;11.542;2023-06-26T17:01:54;5.07;;;4.57;;
47129;SDS011;69689;48.122;11.542;2023-06-26T17:04:22;6.57;;;4.57;;
47129;SDS011;69689;48.122;11.542;2023-06-26T17:06:47;6.25;;;5.60;;
47129;SDS011;69689;48.122;11.542;2023-06-26T17:09:13;5.13;;;4.20;;
47129;SDS011;69689;48.122;11.542;2023-06-26T17:11:39;4.07;;;3.67;;
47129;SDS011;69689;48.122;11.542;2023-06-26T17:14:06;6.32;;;4.40;;
47129;SDS011;69689;48.122;11.542;2023-06-26T17:16:32;5.97;;;5.20;;
47129;SDS011;69689;48.122;11.542;2023-06-26T17:18:58;5.53;;;4.93;;
47129;SDS011;69689;48.122;11.542;2023-06-26T17:21:23;5.33;;;4.83;;
47129;SDS011;69689;48.122;11.542;2023-06-26T17:23:49;5.80;;;5.20;;
47129;SDS011;69689;48.122;11.542;2023-06-26T17:26:14;5.83;;;5.23;;
47129;SDS011;69689;48.122;11.542;2023-06-26T17:28:39;6.28;;;5.60;;
47129;SDS011;69689;48.122;11.542;2023-06-26T17:31:04;5.78;;;5.18;;
47129;SDS011;69689;48.122;11.542;2023-06-26T17:33:30;4.90;;;4.40;;
47129;SDS011;69689;48.122;11.542;2023-06-26T17:35:56;5.20;;;4.70;;
47129;SDS011;69689;48.122;11.542;2023-06-26T17:38:21;8.00;;;6.20;;
47129;SDS011;69689;48.122;11.542;2023-06-26T17:40:46;6.03;;;4.57;;
47129;SDS011;69689;48.122;11.542;2023-06-26T17:43:11;6.77;;;5.57;;
47129;SDS011;69689;48.122;11.542;2023-06-26T17:45:37;6.80;;;4.88;;
47129;SDS011;69689;48.122;11.542;2023-06-26T17:48:03;6.43;;;4.97;;
47129;SDS011;69689;48.122;11.542;2023-06-26T17:50:29;5.63;;;5.10;;
47129;SDS011;69689;48.122;11.542;2023-06-26T17:52:55;7.03;;;5.25;;
47129;SDS011;69689;48.122;11.542;2023-06-26T17:55:20;5.90;;;5.30;;
47129;SDS011;69689;48.122;11.542;2023-06-26T17:57:46;6.70;;;5.57;;
47129;SDS011;69689;48.122;11.542;2023-06-26T18:00:11;7.03;;;5.20;;
47129;SDS011;69689;48.122;11.542;2023-06-26T18:02:37;7.03;;;5.88;;
47129;SDS011;69689;48.122;11.542;2023-06-26T18:05:05;8.00;;;5.55;;
47129;SDS011;69689;48.122;11.542;2023-06-26T18:07:30;4.82;;;4.18;;
47129;SDS011;69689;48.122;11.542;2023-06-26T18:09:56;6.22;;;5.63;;
47129;SDS011;69689;48.122;11.542;2023-06-26T18:12:21;6.33;;;5.30;;
47129;SDS011;69689;48.122;11.542;2023-06-26T18:14:47;6.97;;;5.43;;
47129;SDS011;69689;48.122;11.542;2023-06-26T18:17:15;5.90;;;5.17;;
47129;SDS011;69689;48.122;11.542;2023-06-26T18:19:40;8.10;;;5.88;;
47129;SDS011;69689;48.122;11.542;2023-06-26T18:22:06;7.03;;;6.30;;
47129;SDS011;69689;48.122;11.542;2023-06-26T18:24:31;6.72;;;5.45;;
47129;SDS011;69689;48.122;11.542;2023-06-26T18:26:57;7.45;;;5.90;;
47129;SDS011;69689;48.122;11.542;2023-06-26T18:29:22;9.20;;;6.63;;
47129;SDS011;69689;48.122;11.542;2023-06-26T18:31:47;8.02;;;5.60;;
47129;SDS011;69689;48.122;11.542;2023-06-26T18:34:13;6.90;;;5.50;;
47129;SDS011;69689;48.122;11.542;2023-06-26T18:36:38;6.07;;;5.13;;
47129;SDS011;69689;48.122;11.542;2023-06-26T18:39:03;6.03;;;5.10;;
47129;SDS011;69689;48.122;11.542;2023-06-26T18:41:29;6.72;;;5.13;;
47129;SDS011;69689;48.122;11.542;2023-06-26T18:43:55;6.32;;;4.75;;
47129;SDS011;69689;48.122;11.542;2023-06-26T18:46:20;6.93;;;5.03;;
47129;SDS011;69689;48.122;11.542;2023-06-26T18:48:46;5.03;;;4.37;;
47129;SDS011;69689;48.122;11.542;2023-06-26T18:51:12;6.32;;;4.95;;
47129;SDS011;69689;48.122;11.542;2023-06-26T18:53:37;7.57;;;5.45;;
47129;SDS011;69689;48.122;11.542;2023-06-26T18:56:06;5.88;;;5.28;;
47129;SDS011;69689;48.122;11.542;2023-06-26T18:58:32;5.50;;;4.57;;
47129;SDS011;69689;48.122;11.542;2023-06-26T19:00:57;7.05;;;5.40;;
